sensor_id;sensor_type;location;lat;lon;timestamp;temperature;humidity
10802;DHT22;5453;50.852;7.102;2023-05-07T00:02:31;15.90;99.90
10802;DHT22;5453;50.852;7.102;2023-05-07T00:05:04;15.90;99.90
10802;DHT22;5453;50.852;7.102;2023-05-07T00:07:37;15.90;99.90
10802;DHT22;5453;50.852;7.102;2023-05-07T00:10:10;15.90;99.90
10802;DHT22;5453;50.852;7.102;2023-05-07T00:12:44;15.90;99.90
10802;DHT22;5453;50.852;7.102;2023-05-07T00:15:16;15.90;99.90
10802;DHT22;5453;50.852;7.102;2023-05-07T00:17:48;15.80;99.90
10802;DHT22;5453;50.852;7.102;2023-05-07T00:20:20;15.80;99.90
10802;DHT22;5453;50.852;7.102;2023-05-07T00:22:52;15.90;99.90
10802;DHT22;5453;50.852;7.102;2023-05-07T00:25:24;15.80;99.90
10802;DHT22;5453;50.852;7.102;2023-05-07T00:27:58;15.80;99.90
10802;DHT22;5453;50.852;7.102;2023-05-07T00:30:34;15.80;99.90
10802;DHT22;5453;50.852;7.102;2023-05-07T00:33:06;15.80;99.90
10802;DHT22;5453;50.852;7.102;2023-05-07T00:35:38;15.80;99.90
10802;DHT22;5453;50.852;7.102;2023-05-07T00:38:11;15.80;99.90
10802;DHT22;5453;50.852;7.102;2023-05-07T00:40:43;15.80;99.90
10802;DHT22;5453;50.852;7.102;2023-05-07T00:43:17;15.80;99.90
10802;DHT22;5453;50.852;7.102;2023-05-07T00:45:49;15.80;99.90
10802;DHT22;5453;50.852;7.102;2023-05-07T00:48:21;15.80;99.90
10802;DHT22;5453;50.852;7.102;2023-05-07T00:50:55;15.80;99.90
10802;DHT22;5453;50.852;7.102;2023-05-07T00:53:28;15.80;99.90
10802;DHT22;5453;50.852;7.102;2023-05-07T00:56:01;15.80;99.90
10802;DHT22;5453;50.852;7.102;2023-05-07T00:58:35;15.80;99.90
10802;DHT22;5453;50.852;7.102;2023-05-07T01:01:07;15.80;99.90
10802;DHT22;5453;50.852;7.102;2023-05-07T01:03:39;15.80;99.90
10802;DHT22;5453;50.852;7.102;2023-05-07T01:06:12;15.80;99.90
10802;DHT22;5453;50.852;7.102;2023-05-07T01:08:47;15.80;99.90
10802;DHT22;5453;50.852;7.102;2023-05-07T01:11:21;15.80;99.90
10802;DHT22;5453;50.852;7.102;2023-05-07T01:13:54;15.80;99.90
10802;DHT22;5453;50.852;7.102;2023-05-07T01:16:26;15.80;99.90
10802;DHT22;5453;50.852;7.102;2023-05-07T01:18:59;15.80;99.90
10802;DHT22;5453;50.852;7.102;2023-05-07T01:21:33;15.80;99.90
10802;DHT22;5453;50.852;7.102;2023-05-07T01:24:09;15.80;99.90
10802;DHT22;5453;50.852;7.102;2023-05-07T01:26:42;15.80;99.90
10802;DHT22;5453;50.852;7.102;2023-05-07T01:29:14;15.80;99.90
10802;DHT22;5453;50.852;7.102;2023-05-07T01:31:49;15.80;99.90
10802;DHT22;5453;50.852;7.102;2023-05-07T01:34:22;15.80;99.90
10802;DHT22;5453;50.852;7.102;2023-05-07T01:36:56;15.80;99.90
10802;DHT22;5453;50.852;7.102;2023-05-07T01:39:32;15.70;99.90
10802;DHT22;5453;50.852;7.102;2023-05-07T01:42:04;15.70;99.90
10802;DHT22;5453;50.852;7.102;2023-05-07T01:44:36;15.70;99.90
10802;DHT22;5453;50.852;7.102;2023-05-07T01:47:08;15.70;99.90
10802;DHT22;5453;50.852;7.102;2023-05-07T01:49:42;15.70;99.90
10802;DHT22;5453;50.852;7.102;2023-05-07T01:52:14;15.70;99.90
10802;DHT22;5453;50.852;7.102;2023-05-07T01:54:48;15.70;99.90
10802;DHT22;5453;50.852;7.102;2023-05-07T01:57:20;15.70;99.90
10802;DHT22;5453;50.852;7.102;2023-05-07T01:59:52;15.60;99.90
10802;DHT22;5453;50.852;7.102;2023-05-07T02:02:24;15.70;99.90
10802;DHT22;5453;50.852;7.102;2023-05-07T02:04:59;15.70;99.90
10802;DHT22;5453;50.852;7.102;2023-05-07T02:07:32;15.70;99.90
10802;DHT22;5453;50.852;7.102;2023-05-07T02:10:06;15.70;99.90
10802;DHT22;5453;50.852;7.102;2023-05-07T02:12:39;15.70;99.90
10802;DHT22;5453;50.852;7.102;2023-05-07T02:15:11;15.70;99.90
10802;DHT22;5453;50.852;7.102;2023-05-07T02:17:58;15.70;99.90
10802;DHT22;5453;50.852;7.102;2023-05-07T02:20:31;15.70;99.90
10802;DHT22;5453;50.852;7.102;2023-05-07T02:23:04;15.70;99.90
10802;DHT22;5453;50.852;7.102;2023-05-07T02:25:37;15.60;99.90
10802;DHT22;5453;50.852;7.102;2023-05-07T02:28:09;15.60;99.90
10802;DHT22;5453;50.852;7.102;2023-05-07T02:30:53;15.60;99.90
10802;DHT22;5453;50.852;7.102;2023-05-07T02:33:25;15.60;99.90
10802;DHT22;5453;50.852;7.102;2023-05-07T02:36:05;15.60;99.90
10802;DHT22;5453;50.852;7.102;2023-05-07T02:38:40;15.60;99.90
10802;DHT22;5453;50.852;7.102;2023-05-07T02:41:13;15.60;99.90
10802;DHT22;5453;50.852;7.102;2023-05-07T02:43:45;15.60;99.90
10802;DHT22;5453;50.852;7.102;2023-05-07T02:46:18;15.60;99.90
10802;DHT22;5453;50.852;7.102;2023-05-07T02:48:56;15.60;99.90
10802;DHT22;5453;50.852;7.102;2023-05-07T02:51:30;15.50;99.90
10802;DHT22;5453;50.852;7.102;2023-05-07T02:54:06;15.50;99.90
10802;DHT22;5453;50.852;7.102;2023-05-07T02:56:39;15.50;99.90
10802;DHT22;5453;50.852;7.102;2023-05-07T02:59:11;15.50;99.90
10802;DHT22;5453;50.852;7.102;2023-05-07T03:01:45;15.50;99.90
10802;DHT22;5453;50.852;7.102;2023-05-07T03:04:19;15.40;99.90
10802;DHT22;5453;50.852;7.102;2023-05-07T03:06:51;15.40;99.90
10802;DHT22;5453;50.852;7.102;2023-05-07T03:09:24;15.40;99.90
10802;DHT22;5453;50.852;7.102;2023-05-07T03:11:58;15.40;99.90
10802;DHT22;5453;50.852;7.102;2023-05-07T03:14:32;15.40;99.90
10802;DHT22;5453;50.852;7.102;2023-05-07T03:17:04;15.40;99.90
10802;DHT22;5453;50.852;7.102;2023-05-07T03:19:36;15.40;99.90
10802;DHT22;5453;50.852;7.102;2023-05-07T03:22:09;15.40;99.90
10802;DHT22;5453;50.852;7.102;2023-05-07T03:24:41;15.40;99.90
10802;DHT22;5453;50.852;7.102;2023-05-07T03:27:14;15.30;99.90
10802;DHT22;5453;50.852;7.102;2023-05-07T03:29:47;15.40;99.90
10802;DHT22;5453;50.852;7.102;2023-05-07T03:32:20;15.40;99.90
10802;DHT22;5453;50.852;7.102;2023-05-07T03:34:52;15.30;99.90
10802;DHT22;5453;50.852;7.102;2023-05-07T03:37:25;15.30;99.90
10802;DHT22;5453;50.852;7.102;2023-05-07T03:39:58;15.30;99.90
10802;DHT22;5453;50.852;7.102;2023-05-07T03:42:32;15.30;99.90
10802;DHT22;5453;50.852;7.102;2023-05-07T03:45:05;15.30;99.90
10802;DHT22;5453;50.852;7.102;2023-05-07T03:47:39;15.30;99.90
10802;DHT22;5453;50.852;7.102;2023-05-07T03:50:13;15.30;99.90
10802;DHT22;5453;50.852;7.102;2023-05-07T03:52:45;15.30;99.90
10802;DHT22;5453;50.852;7.102;2023-05-07T03:55:21;15.30;99.90
10802;DHT22;5453;50.852;7.102;2023-05-07T03:57:59;15.30;99.90
10802;DHT22;5453;50.852;7.102;2023-05-07T04:00:33;15.30;99.90
10802;DHT22;5453;50.852;7.102;2023-05-07T04:03:14;15.30;99.90
10802;DHT22;5453;50.852;7.102;2023-05-07T04:08:28;15.30;99.90
10802;DHT22;5453;50.852;7.102;2023-05-07T04:11:00;15.30;99.90
10802;DHT22;5453;50.852;7.102;2023-05-07T04:13:35;15.30;99.90
10802;DHT22;5453;50.852;7.102;2023-05-07T04:16:10;15.30;99.90
10802;DHT22;5453;50.852;7.102;2023-05-07T04:18:42;15.30;99.90
10802;DHT22;5453;50.852;7.102;2023-05-07T04:21:15;15.30;99.90
10802;DHT22;5453;50.852;7.102;2023-05-07T04:23:48;15.30;99.90
10802;DHT22;5453;50.852;7.102;2023-05-07T04:26:21;15.30;99.90
10802;DHT22;5453;50.852;7.102;2023-05-07T04:28:55;15.30;99.90
10802;DHT22;5453;50.852;7.102;2023-05-07T04:31:29;15.30;99.90
10802;DHT22;5453;50.852;7.102;2023-05-07T04:34:01;15.40;99.90
10802;DHT22;5453;50.852;7.102;2023-05-07T04:36:33;15.40;99.90
10802;DHT22;5453;50.852;7.102;2023-05-07T04:39:09;15.40;99.90
10802;DHT22;5453;50.852;7.102;2023-05-07T04:41:43;15.40;99.90
10802;DHT22;5453;50.852;7.102;2023-05-07T04:44:17;15.40;99.90
10802;DHT22;5453;50.852;7.102;2023-05-07T04:46:50;15.40;99.90
10802;DHT22;5453;50.852;7.102;2023-05-07T04:49:22;15.40;99.90
10802;DHT22;5453;50.852;7.102;2023-05-07T04:51:56;15.40;99.90
10802;DHT22;5453;50.852;7.102;2023-05-07T04:54:29;15.40;99.90
10802;DHT22;5453;50.852;7.102;2023-05-07T04:57:03;15.40;99.90
10802;DHT22;5453;50.852;7.102;2023-05-07T04:59:37;15.40;99.90
10802;DHT22;5453;50.852;7.102;2023-05-07T05:02:10;15.40;99.90
10802;DHT22;5453;50.852;7.102;2023-05-07T05:04:43;15.50;99.90
10802;DHT22;5453;50.852;7.102;2023-05-07T05:07:15;15.50;99.90
10802;DHT22;5453;50.852;7.102;2023-05-07T05:09:47;15.50;99.90
10802;DHT22;5453;50.852;7.102;2023-05-07T05:12:19;15.50;99.90
10802;DHT22;5453;50.852;7.102;2023-05-07T05:14:53;15.50;99.90
10802;DHT22;5453;50.852;7.102;2023-05-07T05:17:25;15.60;99.90
10802;DHT22;5453;50.852;7.102;2023-05-07T05:19:58;15.60;99.90
10802;DHT22;5453;50.852;7.102;2023-05-07T05:22:30;15.70;99.90
10802;DHT22;5453;50.852;7.102;2023-05-07T05:25:04;15.70;99.90
10802;DHT22;5453;50.852;7.102;2023-05-07T05:27:37;15.90;99.90
10802;DHT22;5453;50.852;7.102;2023-05-07T05:30:12;16.00;99.90
10802;DHT22;5453;50.852;7.102;2023-05-07T05:32:45;16.20;99.90
10802;DHT22;5453;50.852;7.102;2023-05-07T05:35:17;16.30;99.90
10802;DHT22;5453;50.852;7.102;2023-05-07T05:37:49;16.40;99.90
10802;DHT22;5453;50.852;7.102;2023-05-07T05:40:23;16.50;99.90
10802;DHT22;5453;50.852;7.102;2023-05-07T05:42:55;16.60;99.90
10802;DHT22;5453;50.852;7.102;2023-05-07T05:45:29;16.70;99.90
10802;DHT22;5453;50.852;7.102;2023-05-07T05:48:02;16.70;99.90
10802;DHT22;5453;50.852;7.102;2023-05-07T05:50:34;16.80;99.90
10802;DHT22;5453;50.852;7.102;2023-05-07T05:53:08;16.80;99.90
10802;DHT22;5453;50.852;7.102;2023-05-07T05:55:40;16.70;99.90
10802;DHT22;5453;50.852;7.102;2023-05-07T05:58:13;16.70;99.90
10802;DHT22;5453;50.852;7.102;2023-05-07T06:00:51;16.70;99.90
10802;DHT22;5453;50.852;7.102;2023-05-07T06:03:25;16.60;99.90
10802;DHT22;5453;50.852;7.102;2023-05-07T06:05:58;16.70;99.90
10802;DHT22;5453;50.852;7.102;2023-05-07T06:08:31;16.70;99.90
10802;DHT22;5453;50.852;7.102;2023-05-07T06:11:04;16.70;99.90
10802;DHT22;5453;50.852;7.102;2023-05-07T06:13:40;16.70;99.90
10802;DHT22;5453;50.852;7.102;2023-05-07T06:16:14;16.70;99.90
10802;DHT22;5453;50.852;7.102;2023-05-07T06:18:47;16.70;99.90
10802;DHT22;5453;50.852;7.102;2023-05-07T06:21:20;16.80;99.90
10802;DHT22;5453;50.852;7.102;2023-05-07T06:23:52;16.80;99.90
10802;DHT22;5453;50.852;7.102;2023-05-07T06:26:25;16.80;99.90
10802;DHT22;5453;50.852;7.102;2023-05-07T06:28:58;16.80;99.90
10802;DHT22;5453;50.852;7.102;2023-05-07T06:31:31;16.80;99.90
10802;DHT22;5453;50.852;7.102;2023-05-07T06:34:08;16.90;99.90
10802;DHT22;5453;50.852;7.102;2023-05-07T06:36:42;16.90;99.90
10802;DHT22;5453;50.852;7.102;2023-05-07T06:39:43;16.90;99.90
10802;DHT22;5453;50.852;7.102;2023-05-07T06:42:15;16.90;99.90
10802;DHT22;5453;50.852;7.102;2023-05-07T06:44:51;16.90;99.90
10802;DHT22;5453;50.852;7.102;2023-05-07T06:47:25;17.00;99.90
10802;DHT22;5453;50.852;7.102;2023-05-07T06:49:59;17.00;99.90
10802;DHT22;5453;50.852;7.102;2023-05-07T06:52:35;17.10;99.90
10802;DHT22;5453;50.852;7.102;2023-05-07T06:55:09;17.10;99.90
10802;DHT22;5453;50.852;7.102;2023-05-07T06:57:42;17.20;99.90
10802;DHT22;5453;50.852;7.102;2023-05-07T07:00:15;17.30;99.90
10802;DHT22;5453;50.852;7.102;2023-05-07T07:02:54;17.40;99.90
10802;DHT22;5453;50.852;7.102;2023-05-07T07:05:30;17.50;99.90
10802;DHT22;5453;50.852;7.102;2023-05-07T07:08:03;17.60;99.90
10802;DHT22;5453;50.852;7.102;2023-05-07T07:10:35;17.70;99.90
10802;DHT22;5453;50.852;7.102;2023-05-07T07:13:08;17.90;99.90
10802;DHT22;5453;50.852;7.102;2023-05-07T07:15:40;18.10;99.90
10802;DHT22;5453;50.852;7.102;2023-05-07T07:18:14;18.30;99.90
10802;DHT22;5453;50.852;7.102;2023-05-07T07:20:47;18.60;99.90
10802;DHT22;5453;50.852;7.102;2023-05-07T07:23:20;18.80;99.90
10802;DHT22;5453;50.852;7.102;2023-05-07T07:25:52;18.90;99.90
10802;DHT22;5453;50.852;7.102;2023-05-07T07:28:24;19.10;99.90
10802;DHT22;5453;50.852;7.102;2023-05-07T07:30:57;19.20;99.90
10802;DHT22;5453;50.852;7.102;2023-05-07T07:33:31;19.30;99.90
10802;DHT22;5453;50.852;7.102;2023-05-07T07:36:04;19.40;99.90
10802;DHT22;5453;50.852;7.102;2023-05-07T07:38:37;19.40;99.90
10802;DHT22;5453;50.852;7.102;2023-05-07T07:41:09;19.50;99.90
10802;DHT22;5453;50.852;7.102;2023-05-07T07:43:41;19.50;99.90
10802;DHT22;5453;50.852;7.102;2023-05-07T07:46:14;19.60;99.90
10802;DHT22;5453;50.852;7.102;2023-05-07T07:48:48;19.60;99.90
10802;DHT22;5453;50.852;7.102;2023-05-07T07:51:20;19.70;99.90
10802;DHT22;5453;50.852;7.102;2023-05-07T07:53:53;19.80;99.90
10802;DHT22;5453;50.852;7.102;2023-05-07T07:56:25;20.10;99.90
10802;DHT22;5453;50.852;7.102;2023-05-07T07:58:57;20.30;99.90
10802;DHT22;5453;50.852;7.102;2023-05-07T08:01:30;20.60;99.90
10802;DHT22;5453;50.852;7.102;2023-05-07T08:04:04;20.70;99.90
10802;DHT22;5453;50.852;7.102;2023-05-07T08:06:40;20.80;99.90
10802;DHT22;5453;50.852;7.102;2023-05-07T08:09:13;20.90;99.90
10802;DHT22;5453;50.852;7.102;2023-05-07T08:11:46;21.00;99.90
10802;DHT22;5453;50.852;7.102;2023-05-07T08:14:18;21.10;99.90
10802;DHT22;5453;50.852;7.102;2023-05-07T08:16:52;21.20;99.90
10802;DHT22;5453;50.852;7.102;2023-05-07T08:19:26;21.30;99.90
10802;DHT22;5453;50.852;7.102;2023-05-07T08:21:58;21.40;99.90
10802;DHT22;5453;50.852;7.102;2023-05-07T08:24:31;21.40;99.90
10802;DHT22;5453;50.852;7.102;2023-05-07T08:27:03;21.40;99.90
10802;DHT22;5453;50.852;7.102;2023-05-07T08:29:35;21.30;99.90
10802;DHT22;5453;50.852;7.102;2023-05-07T08:32:08;21.20;99.90
10802;DHT22;5453;50.852;7.102;2023-05-07T08:34:41;21.10;99.90
10802;DHT22;5453;50.852;7.102;2023-05-07T08:37:13;21.00;99.90
10802;DHT22;5453;50.852;7.102;2023-05-07T08:39:46;20.90;99.90
10802;DHT22;5453;50.852;7.102;2023-05-07T08:42:24;20.80;99.90
10802;DHT22;5453;50.852;7.102;2023-05-07T08:44:57;20.70;99.90
10802;DHT22;5453;50.852;7.102;2023-05-07T08:47:40;20.60;99.90
10802;DHT22;5453;50.852;7.102;2023-05-07T08:50:17;20.80;99.90
10802;DHT22;5453;50.852;7.102;2023-05-07T08:52:50;20.90;99.90
10802;DHT22;5453;50.852;7.102;2023-05-07T08:55:23;21.20;99.90
10802;DHT22;5453;50.852;7.102;2023-05-07T08:57:56;21.50;99.90
10802;DHT22;5453;50.852;7.102;2023-05-07T09:00:28;21.80;99.60
10802;DHT22;5453;50.852;7.102;2023-05-07T09:03:01;22.50;99.00
10802;DHT22;5453;50.852;7.102;2023-05-07T09:05:35;23.40;97.20
10802;DHT22;5453;50.852;7.102;2023-05-07T09:08:08;24.10;95.10
10802;DHT22;5453;50.852;7.102;2023-05-07T09:10:42;24.80;93.60
10802;DHT22;5453;50.852;7.102;2023-05-07T09:13:14;25.20;92.20
10802;DHT22;5453;50.852;7.102;2023-05-07T09:15:49;25.50;89.80
10802;DHT22;5453;50.852;7.102;2023-05-07T09:18:23;25.50;88.10
10802;DHT22;5453;50.852;7.102;2023-05-07T09:20:57;25.20;86.00
10802;DHT22;5453;50.852;7.102;2023-05-07T09:23:29;24.90;87.40
10802;DHT22;5453;50.852;7.102;2023-05-07T09:26:03;24.90;88.60
10802;DHT22;5453;50.852;7.102;2023-05-07T09:28:39;24.70;88.70
10802;DHT22;5453;50.852;7.102;2023-05-07T09:31:13;24.50;89.10
10802;DHT22;5453;50.852;7.102;2023-05-07T09:33:46;24.30;90.00
10802;DHT22;5453;50.852;7.102;2023-05-07T09:36:20;24.30;90.00
10802;DHT22;5453;50.852;7.102;2023-05-07T09:38:53;24.20;90.10
10802;DHT22;5453;50.852;7.102;2023-05-07T09:41:27;24.10;89.70
10802;DHT22;5453;50.852;7.102;2023-05-07T09:44:09;24.10;90.40
10802;DHT22;5453;50.852;7.102;2023-05-07T09:46:51;24.20;90.90
10802;DHT22;5453;50.852;7.102;2023-05-07T09:49:34;24.30;90.00
10802;DHT22;5453;50.852;7.102;2023-05-07T09:52:13;24.30;88.80
10802;DHT22;5453;50.852;7.102;2023-05-07T09:54:53;24.20;89.40
10802;DHT22;5453;50.852;7.102;2023-05-07T09:57:30;23.90;89.20
10802;DHT22;5453;50.852;7.102;2023-05-07T10:00:09;23.80;89.70
10802;DHT22;5453;50.852;7.102;2023-05-07T10:02:52;23.60;90.10
10802;DHT22;5453;50.852;7.102;2023-05-07T10:05:31;23.60;90.70
10802;DHT22;5453;50.852;7.102;2023-05-07T10:08:08;23.60;90.30
10802;DHT22;5453;50.852;7.102;2023-05-07T10:10:42;23.60;90.10
10802;DHT22;5453;50.852;7.102;2023-05-07T10:13:19;23.50;90.30
10802;DHT22;5453;50.852;7.102;2023-05-07T10:15:56;23.50;90.40
10802;DHT22;5453;50.852;7.102;2023-05-07T10:18:33;23.50;90.40
10802;DHT22;5453;50.852;7.102;2023-05-07T10:21:16;23.50;90.30
10802;DHT22;5453;50.852;7.102;2023-05-07T10:23:58;23.50;90.30
10802;DHT22;5453;50.852;7.102;2023-05-07T10:26:35;23.60;90.20
10802;DHT22;5453;50.852;7.102;2023-05-07T10:29:14;23.80;90.20
10802;DHT22;5453;50.852;7.102;2023-05-07T10:31:54;24.10;89.50
10802;DHT22;5453;50.852;7.102;2023-05-07T10:34:44;24.40;87.70
10802;DHT22;5453;50.852;7.102;2023-05-07T10:37:21;24.60;86.60
10802;DHT22;5453;50.852;7.102;2023-05-07T10:39:55;24.90;85.70
10802;DHT22;5453;50.852;7.102;2023-05-07T10:42:29;25.10;86.00
10802;DHT22;5453;50.852;7.102;2023-05-07T10:45:12;25.20;84.90
10802;DHT22;5453;50.852;7.102;2023-05-07T10:48:06;25.20;84.80
10802;DHT22;5453;50.852;7.102;2023-05-07T10:50:41;25.20;86.30
10802;DHT22;5453;50.852;7.102;2023-05-07T10:53:23;25.00;87.50
10802;DHT22;5453;50.852;7.102;2023-05-07T10:56:28;24.90;86.90
10802;DHT22;5453;50.852;7.102;2023-05-07T10:59:37;24.70;86.90
10802;DHT22;5453;50.852;7.102;2023-05-07T11:03:04;24.70;87.50
10802;DHT22;5453;50.852;7.102;2023-05-07T11:05:45;24.80;86.90
10802;DHT22;5453;50.852;7.102;2023-05-07T11:08:52;24.90;85.60
10802;DHT22;5453;50.852;7.102;2023-05-07T11:11:50;24.90;82.50
10802;DHT22;5453;50.852;7.102;2023-05-07T11:14:47;24.80;81.50
10802;DHT22;5453;50.852;7.102;2023-05-07T11:17:33;24.80;82.60
10802;DHT22;5453;50.852;7.102;2023-05-07T11:20:10;24.80;82.80
10802;DHT22;5453;50.852;7.102;2023-05-07T11:22:49;24.90;82.40
10802;DHT22;5453;50.852;7.102;2023-05-07T11:25:49;24.90;80.90
10802;DHT22;5453;50.852;7.102;2023-05-07T11:28:28;24.90;83.40
10802;DHT22;5453;50.852;7.102;2023-05-07T11:31:07;25.00;83.60
10802;DHT22;5453;50.852;7.102;2023-05-07T11:33:40;25.10;83.20
10802;DHT22;5453;50.852;7.102;2023-05-07T11:36:18;25.10;82.90
10802;DHT22;5453;50.852;7.102;2023-05-07T11:38:53;25.20;83.40
10802;DHT22;5453;50.852;7.102;2023-05-07T11:41:35;25.30;80.90
10802;DHT22;5453;50.852;7.102;2023-05-07T11:44:10;25.30;78.00
10802;DHT22;5453;50.852;7.102;2023-05-07T11:46:43;25.30;76.10
10802;DHT22;5453;50.852;7.102;2023-05-07T11:49:17;25.30;75.40
10802;DHT22;5453;50.852;7.102;2023-05-07T11:51:50;25.40;75.90
10802;DHT22;5453;50.852;7.102;2023-05-07T11:54:23;25.40;75.90
10802;DHT22;5453;50.852;7.102;2023-05-07T11:56:57;25.50;76.90
10802;DHT22;5453;50.852;7.102;2023-05-07T11:59:38;25.40;76.30
10802;DHT22;5453;50.852;7.102;2023-05-07T12:02:14;25.20;75.90
10802;DHT22;5453;50.852;7.102;2023-05-07T12:04:46;25.10;77.10
10802;DHT22;5453;50.852;7.102;2023-05-07T12:07:19;25.00;77.90
10802;DHT22;5453;50.852;7.102;2023-05-07T12:09:53;24.90;77.70
10802;DHT22;5453;50.852;7.102;2023-05-07T12:12:26;24.90;78.70
10802;DHT22;5453;50.852;7.102;2023-05-07T12:15:01;24.80;79.60
10802;DHT22;5453;50.852;7.102;2023-05-07T12:17:35;24.80;80.60
10802;DHT22;5453;50.852;7.102;2023-05-07T12:20:08;24.70;80.20
10802;DHT22;5453;50.852;7.102;2023-05-07T12:22:43;24.60;80.00
10802;DHT22;5453;50.852;7.102;2023-05-07T12:25:20;24.40;80.10
10802;DHT22;5453;50.852;7.102;2023-05-07T12:27:52;24.30;80.00
10802;DHT22;5453;50.852;7.102;2023-05-07T12:30:27;24.20;81.40
10802;DHT22;5453;50.852;7.102;2023-05-07T12:32:59;24.10;81.60
10802;DHT22;5453;50.852;7.102;2023-05-07T12:35:36;24.00;81.40
10802;DHT22;5453;50.852;7.102;2023-05-07T12:38:11;23.90;80.50
10802;DHT22;5453;50.852;7.102;2023-05-07T12:40:44;23.80;79.70
10802;DHT22;5453;50.852;7.102;2023-05-07T12:43:24;23.70;79.90
10802;DHT22;5453;50.852;7.102;2023-05-07T12:46:01;23.60;81.00
10802;DHT22;5453;50.852;7.102;2023-05-07T12:48:36;23.50;81.80
10802;DHT22;5453;50.852;7.102;2023-05-07T12:51:09;23.40;81.80
10802;DHT22;5453;50.852;7.102;2023-05-07T12:53:44;23.40;81.50
10802;DHT22;5453;50.852;7.102;2023-05-07T12:56:16;23.30;82.60
10802;DHT22;5453;50.852;7.102;2023-05-07T12:58:50;23.30;83.60
10802;DHT22;5453;50.852;7.102;2023-05-07T13:01:29;23.20;85.50
10802;DHT22;5453;50.852;7.102;2023-05-07T13:04:05;23.20;88.00
10802;DHT22;5453;50.852;7.102;2023-05-07T13:06:37;23.20;89.20
10802;DHT22;5453;50.852;7.102;2023-05-07T13:09:11;23.10;90.00
10802;DHT22;5453;50.852;7.102;2023-05-07T13:11:44;23.10;90.50
10802;DHT22;5453;50.852;7.102;2023-05-07T13:14:16;23.00;90.80
10802;DHT22;5453;50.852;7.102;2023-05-07T13:16:54;22.90;91.00
10802;DHT22;5453;50.852;7.102;2023-05-07T13:19:27;22.90;92.20
10802;DHT22;5453;50.852;7.102;2023-05-07T13:21:59;22.90;92.10
10802;DHT22;5453;50.852;7.102;2023-05-07T13:24:32;23.00;92.00
10802;DHT22;5453;50.852;7.102;2023-05-07T13:27:04;23.00;91.80
10802;DHT22;5453;50.852;7.102;2023-05-07T13:29:37;23.00;91.80
10802;DHT22;5453;50.852;7.102;2023-05-07T13:32:11;23.00;91.50
10802;DHT22;5453;50.852;7.102;2023-05-07T13:34:44;23.10;91.20
10802;DHT22;5453;50.852;7.102;2023-05-07T13:37:17;23.10;91.10
10802;DHT22;5453;50.852;7.102;2023-05-07T13:39:49;23.20;91.00
10802;DHT22;5453;50.852;7.102;2023-05-07T13:42:22;23.20;91.00
10802;DHT22;5453;50.852;7.102;2023-05-07T13:44:54;23.20;91.20
10802;DHT22;5453;50.852;7.102;2023-05-07T13:47:29;23.20;91.90
10802;DHT22;5453;50.852;7.102;2023-05-07T13:50:03;23.10;91.10
10802;DHT22;5453;50.852;7.102;2023-05-07T13:52:38;23.10;91.10
10802;DHT22;5453;50.852;7.102;2023-05-07T13:55:11;23.10;91.40
10802;DHT22;5453;50.852;7.102;2023-05-07T13:57:44;23.10;91.50
10802;DHT22;5453;50.852;7.102;2023-05-07T14:00:18;23.10;91.80
10802;DHT22;5453;50.852;7.102;2023-05-07T14:02:52;23.20;91.70
10802;DHT22;5453;50.852;7.102;2023-05-07T14:05:26;23.20;91.70
10802;DHT22;5453;50.852;7.102;2023-05-07T14:08:02;23.30;92.30
10802;DHT22;5453;50.852;7.102;2023-05-07T14:10:35;23.30;93.30
10802;DHT22;5453;50.852;7.102;2023-05-07T14:13:07;23.30;94.00
10802;DHT22;5453;50.852;7.102;2023-05-07T14:15:41;23.30;93.90
10802;DHT22;5453;50.852;7.102;2023-05-07T14:18:19;23.20;94.10
10802;DHT22;5453;50.852;7.102;2023-05-07T14:20:54;23.20;94.30
10802;DHT22;5453;50.852;7.102;2023-05-07T14:23:28;23.10;94.20
10802;DHT22;5453;50.852;7.102;2023-05-07T14:26:01;23.10;94.30
10802;DHT22;5453;50.852;7.102;2023-05-07T14:28:35;23.10;94.40
10802;DHT22;5453;50.852;7.102;2023-05-07T14:31:09;23.00;94.40
10802;DHT22;5453;50.852;7.102;2023-05-07T14:33:43;23.00;94.20
10802;DHT22;5453;50.852;7.102;2023-05-07T14:36:18;23.00;94.10
10802;DHT22;5453;50.852;7.102;2023-05-07T14:38:56;23.00;94.30
10802;DHT22;5453;50.852;7.102;2023-05-07T14:41:30;22.90;94.40
10802;DHT22;5453;50.852;7.102;2023-05-07T14:44:04;22.80;94.10
10802;DHT22;5453;50.852;7.102;2023-05-07T14:46:37;22.70;94.10
10802;DHT22;5453;50.852;7.102;2023-05-07T14:49:11;22.60;94.20
10802;DHT22;5453;50.852;7.102;2023-05-07T14:51:47;22.50;94.40
10802;DHT22;5453;50.852;7.102;2023-05-07T14:54:20;22.50;94.30
10802;DHT22;5453;50.852;7.102;2023-05-07T14:56:53;22.30;93.90
10802;DHT22;5453;50.852;7.102;2023-05-07T14:59:26;22.20;93.90
10802;DHT22;5453;50.852;7.102;2023-05-07T15:01:58;22.10;94.00
10802;DHT22;5453;50.852;7.102;2023-05-07T15:04:32;22.00;94.30
10802;DHT22;5453;50.852;7.102;2023-05-07T15:07:06;22.00;94.60
10802;DHT22;5453;50.852;7.102;2023-05-07T15:09:38;21.90;95.00
10802;DHT22;5453;50.852;7.102;2023-05-07T15:12:11;21.90;95.30
10802;DHT22;5453;50.852;7.102;2023-05-07T15:14:43;21.80;95.50
10802;DHT22;5453;50.852;7.102;2023-05-07T15:17:17;21.80;95.60
10802;DHT22;5453;50.852;7.102;2023-05-07T15:19:51;21.70;95.80
10802;DHT22;5453;50.852;7.102;2023-05-07T15:22:24;21.70;96.10
10802;DHT22;5453;50.852;7.102;2023-05-07T15:24:56;21.60;96.20
10802;DHT22;5453;50.852;7.102;2023-05-07T15:27:29;21.60;96.40
10802;DHT22;5453;50.852;7.102;2023-05-07T15:30:02;21.60;97.20
10802;DHT22;5453;50.852;7.102;2023-05-07T15:32:36;21.60;97.70
10802;DHT22;5453;50.852;7.102;2023-05-07T15:35:10;21.60;98.50
10802;DHT22;5453;50.852;7.102;2023-05-07T15:37:42;21.50;99.40
10802;DHT22;5453;50.852;7.102;2023-05-07T15:40:15;21.50;99.90
10802;DHT22;5453;50.852;7.102;2023-05-07T15:42:48;21.40;99.90
10802;DHT22;5453;50.852;7.102;2023-05-07T15:45:21;21.40;99.90
10802;DHT22;5453;50.852;7.102;2023-05-07T15:47:53;21.30;99.90
10802;DHT22;5453;50.852;7.102;2023-05-07T15:50:27;21.30;99.90
10802;DHT22;5453;50.852;7.102;2023-05-07T15:52:59;21.20;99.90
10802;DHT22;5453;50.852;7.102;2023-05-07T15:55:32;21.20;99.10
10802;DHT22;5453;50.852;7.102;2023-05-07T15:58:05;21.20;99.10
10802;DHT22;5453;50.852;7.102;2023-05-07T16:00:37;21.20;99.00
10802;DHT22;5453;50.852;7.102;2023-05-07T16:03:11;21.30;99.20
10802;DHT22;5453;50.852;7.102;2023-05-07T16:05:46;21.30;98.80
10802;DHT22;5453;50.852;7.102;2023-05-07T16:08:18;21.40;98.60
10802;DHT22;5453;50.852;7.102;2023-05-07T16:10:50;21.40;98.40
10802;DHT22;5453;50.852;7.102;2023-05-07T16:13:25;21.50;97.80
10802;DHT22;5453;50.852;7.102;2023-05-07T16:15:58;21.50;97.50
10802;DHT22;5453;50.852;7.102;2023-05-07T16:18:30;21.40;97.40
10802;DHT22;5453;50.852;7.102;2023-05-07T16:21:05;21.40;97.30
10802;DHT22;5453;50.852;7.102;2023-05-07T16:23:38;21.40;97.20
10802;DHT22;5453;50.852;7.102;2023-05-07T16:26:10;21.40;97.60
10802;DHT22;5453;50.852;7.102;2023-05-07T16:28:44;21.40;97.70
10802;DHT22;5453;50.852;7.102;2023-05-07T16:31:16;21.30;97.90
10802;DHT22;5453;50.852;7.102;2023-05-07T16:33:48;21.30;98.40
10802;DHT22;5453;50.852;7.102;2023-05-07T16:36:23;21.30;98.40